sensor_id;sensor_type;location;lat;lon;timestamp;temperature;humidity
5556;DHT22;2801;50.972;7.856;2022-10-16T00:01:40;10.70;99.90
5556;DHT22;2801;50.972;7.856;2022-10-16T00:04:06;10.80;99.90
5556;DHT22;2801;50.972;7.856;2022-10-16T00:06:33;10.80;99.90
5556;DHT22;2801;50.972;7.856;2022-10-16T00:09:00;10.90;99.90
5556;DHT22;2801;50.972;7.856;2022-10-16T00:11:32;10.90;99.90
5556;DHT22;2801;50.972;7.856;2022-10-16T00:14:05;11.00;99.90
5556;DHT22;2801;50.972;7.856;2022-10-16T00:16:39;11.00;99.90
5556;DHT22;2801;50.972;7.856;2022-10-16T00:19:07;11.00;99.90
5556;DHT22;2801;50.972;7.856;2022-10-16T00:21:33;11.10;99.90
5556;DHT22;2801;50.972;7.856;2022-10-16T00:24:04;11.10;99.90
5556;DHT22;2801;50.972;7.856;2022-10-16T00:26:34;11.10;99.90
5556;DHT22;2801;50.972;7.856;2022-10-16T00:29:02;11.10;99.90
5556;DHT22;2801;50.972;7.856;2022-10-16T00:31:29;11.10;99.90
5556;DHT22;2801;50.972;7.856;2022-10-16T00:33:57;11.20;99.90
5556;DHT22;2801;50.972;7.856;2022-10-16T00:36:25;11.20;99.90
5556;DHT22;2801;50.972;7.856;2022-10-16T00:38:54;11.20;99.90
5556;DHT22;2801;50.972;7.856;2022-10-16T00:41:24;11.20;99.90
5556;DHT22;2801;50.972;7.856;2022-10-16T00:43:54;11.20;99.90
5556;DHT22;2801;50.972;7.856;2022-10-16T00:46:24;11.20;99.90
5556;DHT22;2801;50.972;7.856;2022-10-16T00:49:15;11.20;99.90
5556;DHT22;2801;50.972;7.856;2022-10-16T00:51:46;11.20;99.90
5556;DHT22;2801;50.972;7.856;2022-10-16T00:54:17;11.30;99.90
5556;DHT22;2801;50.972;7.856;2022-10-16T00:56:49;11.30;99.90
5556;DHT22;2801;50.972;7.856;2022-10-16T00:59:29;11.40;99.90
5556;DHT22;2801;50.972;7.856;2022-10-16T01:01:58;11.40;99.90
5556;DHT22;2801;50.972;7.856;2022-10-16T01:04:26;11.40;99.90
5556;DHT22;2801;50.972;7.856;2022-10-16T01:07:16;11.40;99.90
5556;DHT22;2801;50.972;7.856;2022-10-16T01:10:07;11.40;99.90
5556;DHT22;2801;50.972;7.856;2022-10-16T01:12:45;11.60;99.90
5556;DHT22;2801;50.972;7.856;2022-10-16T01:15:36;11.70;99.90
5556;DHT22;2801;50.972;7.856;2022-10-16T01:18:19;11.80;99.90
5556;DHT22;2801;50.972;7.856;2022-10-16T01:21:02;11.90;99.90
5556;DHT22;2801;50.972;7.856;2022-10-16T01:23:57;12.10;99.90
5556;DHT22;2801;50.972;7.856;2022-10-16T01:33:08;12.10;99.90
5556;DHT22;2801;50.972;7.856;2022-10-16T01:35:53;12.20;99.90
5556;DHT22;2801;50.972;7.856;2022-10-16T01:38:36;12.20;99.90
5556;DHT22;2801;50.972;7.856;2022-10-16T01:41:16;12.20;99.90
5556;DHT22;2801;50.972;7.856;2022-10-16T01:44:02;12.20;99.90
5556;DHT22;2801;50.972;7.856;2022-10-16T01:46:34;12.20;99.90
5556;DHT22;2801;50.972;7.856;2022-10-16T01:49:04;12.10;99.90
5556;DHT22;2801;50.972;7.856;2022-10-16T01:51:35;12.10;99.90
5556;DHT22;2801;50.972;7.856;2022-10-16T01:54:05;12.10;99.90
5556;DHT22;2801;50.972;7.856;2022-10-16T01:56:35;12.00;99.90
5556;DHT22;2801;50.972;7.856;2022-10-16T01:59:14;12.00;99.90
5556;DHT22;2801;50.972;7.856;2022-10-16T02:01:48;12.00;99.90
5556;DHT22;2801;50.972;7.856;2022-10-16T02:04:28;12.00;99.90
5556;DHT22;2801;50.972;7.856;2022-10-16T02:06:58;12.00;99.90
5556;DHT22;2801;50.972;7.856;2022-10-16T02:09:26;12.00;99.90
5556;DHT22;2801;50.972;7.856;2022-10-16T02:11:55;12.00;99.90
5556;DHT22;2801;50.972;7.856;2022-10-16T02:14:26;12.10;99.90
5556;DHT22;2801;50.972;7.856;2022-10-16T02:16:53;12.10;99.90
5556;DHT22;2801;50.972;7.856;2022-10-16T02:19:20;12.20;99.90
5556;DHT22;2801;50.972;7.856;2022-10-16T02:29:39;12.50;99.90
5556;DHT22;2801;50.972;7.856;2022-10-16T02:32:12;12.60;99.90
5556;DHT22;2801;50.972;7.856;2022-10-16T02:34:43;12.60;99.90
5556;DHT22;2801;50.972;7.856;2022-10-16T02:37:12;12.70;99.90
5556;DHT22;2801;50.972;7.856;2022-10-16T02:39:40;12.70;99.90
5556;DHT22;2801;50.972;7.856;2022-10-16T02:42:14;12.70;99.90
5556;DHT22;2801;50.972;7.856;2022-10-16T02:44:43;12.70;99.90
5556;DHT22;2801;50.972;7.856;2022-10-16T02:47:10;12.80;99.90
5556;DHT22;2801;50.972;7.856;2022-10-16T02:49:43;12.80;99.90
5556;DHT22;2801;50.972;7.856;2022-10-16T02:52:10;12.90;99.90
5556;DHT22;2801;50.972;7.856;2022-10-16T02:54:36;12.80;99.90
5556;DHT22;2801;50.972;7.856;2022-10-16T02:57:03;12.90;99.90
5556;DHT22;2801;50.972;7.856;2022-10-16T02:59:30;12.90;99.90
5556;DHT22;2801;50.972;7.856;2022-10-16T03:01:56;12.90;99.90
5556;DHT22;2801;50.972;7.856;2022-10-16T03:04:23;12.90;99.90
5556;DHT22;2801;50.972;7.856;2022-10-16T03:06:50;13.00;99.90
5556;DHT22;2801;50.972;7.856;2022-10-16T03:09:17;13.00;99.90
5556;DHT22;2801;50.972;7.856;2022-10-16T03:11:43;13.00;99.90
5556;DHT22;2801;50.972;7.856;2022-10-16T03:14:10;13.00;99.90
5556;DHT22;2801;50.972;7.856;2022-10-16T03:16:37;13.00;99.90
5556;DHT22;2801;50.972;7.856;2022-10-16T03:19:04;13.00;99.90
5556;DHT22;2801;50.972;7.856;2022-10-16T03:21:30;13.00;99.90
5556;DHT22;2801;50.972;7.856;2022-10-16T03:23:57;13.00;99.90
5556;DHT22;2801;50.972;7.856;2022-10-16T03:26:24;12.90;99.90
5556;DHT22;2801;50.972;7.856;2022-10-16T03:28:50;12.90;99.90
5556;DHT22;2801;50.972;7.856;2022-10-16T03:31:17;12.90;99.90
5556;DHT22;2801;50.972;7.856;2022-10-16T03:33:44;12.90;99.90
5556;DHT22;2801;50.972;7.856;2022-10-16T03:36:11;12.90;99.90
5556;DHT22;2801;50.972;7.856;2022-10-16T03:38:38;12.90;99.90
5556;DHT22;2801;50.972;7.856;2022-10-16T03:41:04;12.90;99.90
5556;DHT22;2801;50.972;7.856;2022-10-16T03:43:31;12.90;99.90
5556;DHT22;2801;50.972;7.856;2022-10-16T03:45:58;12.90;99.90
5556;DHT22;2801;50.972;7.856;2022-10-16T03:48:25;12.90;99.90
5556;DHT22;2801;50.972;7.856;2022-10-16T03:50:51;12.90;99.90
5556;DHT22;2801;50.972;7.856;2022-10-16T03:53:18;12.90;99.90
5556;DHT22;2801;50.972;7.856;2022-10-16T03:55:45;12.90;99.90
5556;DHT22;2801;50.972;7.856;2022-10-16T03:58:12;12.80;99.90
5556;DHT22;2801;50.972;7.856;2022-10-16T04:00:42;12.90;99.90
5556;DHT22;2801;50.972;7.856;2022-10-16T04:03:11;12.80;99.90
5556;DHT22;2801;50.972;7.856;2022-10-16T04:05:39;12.80;99.90
5556;DHT22;2801;50.972;7.856;2022-10-16T04:08:06;12.70;99.90
5556;DHT22;2801;50.972;7.856;2022-10-16T04:10:33;12.70;99.90
5556;DHT22;2801;50.972;7.856;2022-10-16T04:12:59;12.60;99.90
5556;DHT22;2801;50.972;7.856;2022-10-16T04:15:26;12.50;99.90
5556;DHT22;2801;50.972;7.856;2022-10-16T04:17:53;12.50;99.90
5556;DHT22;2801;50.972;7.856;2022-10-16T04:20:20;12.40;99.90
5556;DHT22;2801;50.972;7.856;2022-10-16T04:22:47;12.40;99.90
5556;DHT22;2801;50.972;7.856;2022-10-16T04:25:13;12.50;99.90
5556;DHT22;2801;50.972;7.856;2022-10-16T04:27:40;12.50;99.90
5556;DHT22;2801;50.972;7.856;2022-10-16T04:30:11;12.50;99.90
5556;DHT22;2801;50.972;7.856;2022-10-16T04:32:39;12.50;99.90
5556;DHT22;2801;50.972;7.856;2022-10-16T04:35:07;12.50;99.90
5556;DHT22;2801;50.972;7.856;2022-10-16T04:37:34;12.50;99.90
5556;DHT22;2801;50.972;7.856;2022-10-16T04:40:01;12.50;99.90
5556;DHT22;2801;50.972;7.856;2022-10-16T04:42:27;12.50;99.90
5556;DHT22;2801;50.972;7.856;2022-10-16T04:44:54;12.50;99.90
5556;DHT22;2801;50.972;7.856;2022-10-16T04:47:21;12.50;99.90
5556;DHT22;2801;50.972;7.856;2022-10-16T04:49:48;12.40;99.90
5556;DHT22;2801;50.972;7.856;2022-10-16T04:52:14;12.40;99.90
5556;DHT22;2801;50.972;7.856;2022-10-16T04:54:41;12.40;99.90
5556;DHT22;2801;50.972;7.856;2022-10-16T04:57:08;12.30;99.90
5556;DHT22;2801;50.972;7.856;2022-10-16T04:59:35;12.30;99.90
5556;DHT22;2801;50.972;7.856;2022-10-16T05:02:02;12.30;99.90
5556;DHT22;2801;50.972;7.856;2022-10-16T05:04:29;12.30;99.90
5556;DHT22;2801;50.972;7.856;2022-10-16T05:06:56;12.30;99.90
5556;DHT22;2801;50.972;7.856;2022-10-16T05:09:22;12.30;99.90
5556;DHT22;2801;50.972;7.856;2022-10-16T05:11:49;12.30;99.90
5556;DHT22;2801;50.972;7.856;2022-10-16T05:14:16;12.30;99.90
5556;DHT22;2801;50.972;7.856;2022-10-16T05:16:43;12.30;99.90
5556;DHT22;2801;50.972;7.856;2022-10-16T05:19:09;12.20;99.90
5556;DHT22;2801;50.972;7.856;2022-10-16T05:21:54;12.30;99.90
5556;DHT22;2801;50.972;7.856;2022-10-16T05:24:20;12.20;99.90
5556;DHT22;2801;50.972;7.856;2022-10-16T05:26:47;12.30;99.90
5556;DHT22;2801;50.972;7.856;2022-10-16T05:29:14;12.30;99.90
5556;DHT22;2801;50.972;7.856;2022-10-16T05:31:41;12.30;99.90
5556;DHT22;2801;50.972;7.856;2022-10-16T05:34:08;12.40;99.90
5556;DHT22;2801;50.972;7.856;2022-10-16T05:36:34;12.40;99.90
5556;DHT22;2801;50.972;7.856;2022-10-16T05:39:02;12.40;99.90
5556;DHT22;2801;50.972;7.856;2022-10-16T05:41:29;12.50;99.90
5556;DHT22;2801;50.972;7.856;2022-10-16T05:43:55;12.50;99.90
5556;DHT22;2801;50.972;7.856;2022-10-16T05:46:22;12.50;99.90
5556;DHT22;2801;50.972;7.856;2022-10-16T05:48:52;12.50;99.90
5556;DHT22;2801;50.972;7.856;2022-10-16T05:51:19;12.60;99.90
5556;DHT22;2801;50.972;7.856;2022-10-16T05:53:46;12.60;99.90
5556;DHT22;2801;50.972;7.856;2022-10-16T05:56:13;12.60;99.90
5556;DHT22;2801;50.972;7.856;2022-10-16T05:58:40;12.70;99.90
5556;DHT22;2801;50.972;7.856;2022-10-16T06:01:11;12.70;99.90
5556;DHT22;2801;50.972;7.856;2022-10-16T06:03:40;12.70;99.90
5556;DHT22;2801;50.972;7.856;2022-10-16T06:06:16;12.70;99.90
5556;DHT22;2801;50.972;7.856;2022-10-16T06:08:46;12.70;99.90
5556;DHT22;2801;50.972;7.856;2022-10-16T06:11:25;12.80;99.90
5556;DHT22;2801;50.972;7.856;2022-10-16T06:13:56;12.80;99.90
5556;DHT22;2801;50.972;7.856;2022-10-16T06:16:25;12.80;99.90
5556;DHT22;2801;50.972;7.856;2022-10-16T06:18:53;12.80;99.90
5556;DHT22;2801;50.972;7.856;2022-10-16T06:21:24;12.80;99.90
5556;DHT22;2801;50.972;7.856;2022-10-16T06:23:52;12.90;99.90
5556;DHT22;2801;50.972;7.856;2022-10-16T06:26:22;12.90;99.90
5556;DHT22;2801;50.972;7.856;2022-10-16T06:28:50;13.00;99.90
5556;DHT22;2801;50.972;7.856;2022-10-16T06:31:17;13.00;99.90
5556;DHT22;2801;50.972;7.856;2022-10-16T06:33:44;13.00;99.90
5556;DHT22;2801;50.972;7.856;2022-10-16T06:36:16;13.00;99.90
5556;DHT22;2801;50.972;7.856;2022-10-16T06:38:44;13.10;99.90
5556;DHT22;2801;50.972;7.856;2022-10-16T06:41:13;13.10;99.90
5556;DHT22;2801;50.972;7.856;2022-10-16T06:43:41;13.10;99.90
5556;DHT22;2801;50.972;7.856;2022-10-16T06:46:10;13.20;99.90
5556;DHT22;2801;50.972;7.856;2022-10-16T06:48:38;13.20;99.90
5556;DHT22;2801;50.972;7.856;2022-10-16T06:51:07;13.20;99.90
5556;DHT22;2801;50.972;7.856;2022-10-16T06:53:39;13.20;99.90
5556;DHT22;2801;50.972;7.856;2022-10-16T06:56:28;13.20;99.90
5556;DHT22;2801;50.972;7.856;2022-10-16T06:58:57;13.10;99.90
5556;DHT22;2801;50.972;7.856;2022-10-16T07:01:24;13.00;99.90
5556;DHT22;2801;50.972;7.856;2022-10-16T07:03:52;13.00;99.90
5556;DHT22;2801;50.972;7.856;2022-10-16T07:06:21;13.10;99.90
5556;DHT22;2801;50.972;7.856;2022-10-16T07:08:49;13.20;99.90
5556;DHT22;2801;50.972;7.856;2022-10-16T07:11:19;13.10;99.90
5556;DHT22;2801;50.972;7.856;2022-10-16T07:13:48;13.20;99.90
5556;DHT22;2801;50.972;7.856;2022-10-16T07:16:25;13.20;99.90
5556;DHT22;2801;50.972;7.856;2022-10-16T07:18:58;13.20;99.90
5556;DHT22;2801;50.972;7.856;2022-10-16T07:21:32;13.30;99.90
5556;DHT22;2801;50.972;7.856;2022-10-16T07:24:10;13.40;99.90
5556;DHT22;2801;50.972;7.856;2022-10-16T07:26:39;13.50;99.90
5556;DHT22;2801;50.972;7.856;2022-10-16T07:29:12;13.60;99.90
5556;DHT22;2801;50.972;7.856;2022-10-16T07:31:40;13.70;99.90
5556;DHT22;2801;50.972;7.856;2022-10-16T07:34:07;13.80;99.90
5556;DHT22;2801;50.972;7.856;2022-10-16T07:36:37;13.90;99.90
5556;DHT22;2801;50.972;7.856;2022-10-16T07:39:04;14.00;99.90
5556;DHT22;2801;50.972;7.856;2022-10-16T07:41:31;14.20;99.90
5556;DHT22;2801;50.972;7.856;2022-10-16T07:43:59;14.40;99.90
5556;DHT22;2801;50.972;7.856;2022-10-16T07:46:27;14.40;99.90
5556;DHT22;2801;50.972;7.856;2022-10-16T07:48:54;14.40;99.90
5556;DHT22;2801;50.972;7.856;2022-10-16T07:51:23;14.50;99.90
5556;DHT22;2801;50.972;7.856;2022-10-16T07:53:52;14.40;99.90
5556;DHT22;2801;50.972;7.856;2022-10-16T07:56:20;14.50;99.90
5556;DHT22;2801;50.972;7.856;2022-10-16T07:58:48;14.50;99.90
5556;DHT22;2801;50.972;7.856;2022-10-16T08:01:17;14.50;99.90
5556;DHT22;2801;50.972;7.856;2022-10-16T08:03:49;14.50;99.90
5556;DHT22;2801;50.972;7.856;2022-10-16T08:06:21;14.60;99.90
5556;DHT22;2801;50.972;7.856;2022-10-16T08:08:53;14.60;99.90
5556;DHT22;2801;50.972;7.856;2022-10-16T08:11:21;14.50;99.90
5556;DHT22;2801;50.972;7.856;2022-10-16T08:13:49;14.50;99.90
5556;DHT22;2801;50.972;7.856;2022-10-16T08:16:15;14.50;99.90
5556;DHT22;2801;50.972;7.856;2022-10-16T08:18:43;14.40;99.90
5556;DHT22;2801;50.972;7.856;2022-10-16T08:21:14;14.40;99.90
5556;DHT22;2801;50.972;7.856;2022-10-16T08:23:47;14.50;99.90
5556;DHT22;2801;50.972;7.856;2022-10-16T08:26:22;14.50;99.90
5556;DHT22;2801;50.972;7.856;2022-10-16T08:28:50;14.50;99.90
5556;DHT22;2801;50.972;7.856;2022-10-16T08:31:18;14.60;99.90
5556;DHT22;2801;50.972;7.856;2022-10-16T08:33:45;14.70;99.90
5556;DHT22;2801;50.972;7.856;2022-10-16T08:36:14;14.80;99.90
5556;DHT22;2801;50.972;7.856;2022-10-16T08:38:42;14.80;99.90
5556;DHT22;2801;50.972;7.856;2022-10-16T08:50:13;16.40;99.90
5556;DHT22;2801;50.972;7.856;2022-10-16T08:52:45;17.00;99.90
5556;DHT22;2801;50.972;7.856;2022-10-16T08:56:05;18.10;99.90
5556;DHT22;2801;50.972;7.856;2022-10-16T08:58:18;19.20;99.90
5556;DHT22;2801;50.972;7.856;2022-10-16T09:00:50;19.90;99.90
5556;DHT22;2801;50.972;7.856;2022-10-16T09:06:48;19.80;99.90
5556;DHT22;2801;50.972;7.856;2022-10-16T09:18:06;18.40;99.90
5556;DHT22;2801;50.972;7.856;2022-10-16T09:21:01;17.90;99.90
5556;DHT22;2801;50.972;7.856;2022-10-16T09:23:37;17.50;99.90
5556;DHT22;2801;50.972;7.856;2022-10-16T09:26:05;17.20;99.90
5556;DHT22;2801;50.972;7.856;2022-10-16T09:28:37;17.00;99.90
5556;DHT22;2801;50.972;7.856;2022-10-16T09:31:04;16.80;99.90
5556;DHT22;2801;50.972;7.856;2022-10-16T09:33:36;16.70;99.90
5556;DHT22;2801;50.972;7.856;2022-10-16T09:36:08;16.50;99.90
5556;DHT22;2801;50.972;7.856;2022-10-16T09:38:36;16.60;99.90
5556;DHT22;2801;50.972;7.856;2022-10-16T09:41:15;16.50;99.90
5556;DHT22;2801;50.972;7.856;2022-10-16T09:43:52;16.40;99.90
5556;DHT22;2801;50.972;7.856;2022-10-16T09:49:20;16.30;99.90
5556;DHT22;2801;50.972;7.856;2022-10-16T09:51:51;16.40;99.90
5556;DHT22;2801;50.972;7.856;2022-10-16T09:54:30;16.60;99.90
5556;DHT22;2801;50.972;7.856;2022-10-16T09:57:07;16.70;99.90
5556;DHT22;2801;50.972;7.856;2022-10-16T09:59:56;16.70;99.90
5556;DHT22;2801;50.972;7.856;2022-10-16T10:02:37;16.70;99.90
5556;DHT22;2801;50.972;7.856;2022-10-16T10:05:16;16.70;99.90
5556;DHT22;2801;50.972;7.856;2022-10-16T10:07:57;16.80;99.90
5556;DHT22;2801;50.972;7.856;2022-10-16T10:10:28;16.90;99.90
5556;DHT22;2801;50.972;7.856;2022-10-16T10:12:57;16.80;99.90
5556;DHT22;2801;50.972;7.856;2022-10-16T10:15:24;16.90;99.90
5556;DHT22;2801;50.972;7.856;2022-10-16T10:17:55;16.90;99.90
5556;DHT22;2801;50.972;7.856;2022-10-16T10:20:31;16.80;99.90
5556;DHT22;2801;50.972;7.856;2022-10-16T10:23:15;16.90;99.90
5556;DHT22;2801;50.972;7.856;2022-10-16T10:29:04;17.00;99.90
5556;DHT22;2801;50.972;7.856;2022-10-16T10:31:41;17.20;99.90
5556;DHT22;2801;50.972;7.856;2022-10-16T10:40:01;17.80;99.90
5556;DHT22;2801;50.972;7.856;2022-10-16T10:45:46;18.20;99.90
5556;DHT22;2801;50.972;7.856;2022-10-16T10:51:22;18.50;99.90
5556;DHT22;2801;50.972;7.856;2022-10-16T10:54:26;18.70;99.90
5556;DHT22;2801;50.972;7.856;2022-10-16T10:57:10;18.60;99.90
5556;DHT22;2801;50.972;7.856;2022-10-16T11:00:02;18.50;99.90
5556;DHT22;2801;50.972;7.856;2022-10-16T11:02:53;18.40;99.90
5556;DHT22;2801;50.972;7.856;2022-10-16T11:08:55;18.80;99.90
5556;DHT22;2801;50.972;7.856;2022-10-16T11:11:33;18.60;99.90
5556;DHT22;2801;50.972;7.856;2022-10-16T11:22:31;18.40;99.90
5556;DHT22;2801;50.972;7.856;2022-10-16T11:25:13;18.40;99.90
5556;DHT22;2801;50.972;7.856;2022-10-16T11:30:52;18.40;99.90
5556;DHT22;2801;50.972;7.856;2022-10-16T11:36:23;18.50;99.90
5556;DHT22;2801;50.972;7.856;2022-10-16T11:39:11;18.60;99.90
5556;DHT22;2801;50.972;7.856;2022-10-16T11:47:44;18.60;99.90
5556;DHT22;2801;50.972;7.856;2022-10-16T11:56:21;18.60;99.90
5556;DHT22;2801;50.972;7.856;2022-10-16T11:59:05;18.70;99.90
5556;DHT22;2801;50.972;7.856;2022-10-16T12:01:56;18.70;99.90
5556;DHT22;2801;50.972;7.856;2022-10-16T12:04:45;18.70;99.90
5556;DHT22;2801;50.972;7.856;2022-10-16T12:07:32;18.90;99.90
5556;DHT22;2801;50.972;7.856;2022-10-16T12:10:27;18.90;99.90
5556;DHT22;2801;50.972;7.856;2022-10-16T12:12:58;18.80;99.90
5556;DHT22;2801;50.972;7.856;2022-10-16T12:15:29;18.60;99.90
5556;DHT22;2801;50.972;7.856;2022-10-16T12:18:25;18.40;99.90
5556;DHT22;2801;50.972;7.856;2022-10-16T12:20:58;18.30;99.90
5556;DHT22;2801;50.972;7.856;2022-10-16T12:23:31;18.20;99.90
5556;DHT22;2801;50.972;7.856;2022-10-16T12:26:00;18.20;99.90
5556;DHT22;2801;50.972;7.856;2022-10-16T12:28:30;18.10;99.90
5556;DHT22;2801;50.972;7.856;2022-10-16T12:31:07;18.10;99.90
5556;DHT22;2801;50.972;7.856;2022-10-16T12:33:57;18.10;99.90
5556;DHT22;2801;50.972;7.856;2022-10-16T12:36:32;18.20;99.90
5556;DHT22;2801;50.972;7.856;2022-10-16T12:39:01;18.20;99.90
5556;DHT22;2801;50.972;7.856;2022-10-16T12:41:34;18.30;99.90
5556;DHT22;2801;50.972;7.856;2022-10-16T12:44:04;18.30;99.90
5556;DHT22;2801;50.972;7.856;2022-10-16T12:51:41;18.50;99.90
5556;DHT22;2801;50.972;7.856;2022-10-16T12:54:25;18.40;99.90
5556;DHT22;2801;50.972;7.856;2022-10-16T13:02:46;18.20;99.90
5556;DHT22;2801;50.972;7.856;2022-10-16T13:08:09;18.00;99.90
5556;DHT22;2801;50.972;7.856;2022-10-16T13:11:16;18.00;99.90
5556;DHT22;2801;50.972;7.856;2022-10-16T13:17:02;18.00;99.90
5556;DHT22;2801;50.972;7.856;2022-10-16T13:20:10;17.90;99.90
5556;DHT22;2801;50.972;7.856;2022-10-16T13:22:51;17.90;99.90
5556;DHT22;2801;50.972;7.856;2022-10-16T13:28:29;18.00;99.90
5556;DHT22;2801;50.972;7.856;2022-10-16T13:31:01;18.10;99.90
5556;DHT22;2801;50.972;7.856;2022-10-16T13:33:37;17.90;99.90
5556;DHT22;2801;50.972;7.856;2022-10-16T13:36:06;17.90;99.90
5556;DHT22;2801;50.972;7.856;2022-10-16T13:38:36;17.90;99.90
5556;DHT22;2801;50.972;7.856;2022-10-16T13:41:15;17.90;99.90
5556;DHT22;2801;50.972;7.856;2022-10-16T13:43:45;18.00;99.90
5556;DHT22;2801;50.972;7.856;2022-10-16T13:46:18;18.10;99.90
5556;DHT22;2801;50.972;7.856;2022-10-16T13:49:05;18.10;99.90
5556;DHT22;2801;50.972;7.856;2022-10-16T13:51:38;18.10;99.90
5556;DHT22;2801;50.972;7.856;2022-10-16T13:54:05;18.10;99.90
5556;DHT22;2801;50.972;7.856;2022-10-16T13:56:35;18.10;99.90
5556;DHT22;2801;50.972;7.856;2022-10-16T13:59:25;18.10;99.90
5556;DHT22;2801;50.972;7.856;2022-10-16T14:01:56;18.20;99.90
5556;DHT22;2801;50.972;7.856;2022-10-16T14:04:32;18.20;99.90
5556;DHT22;2801;50.972;7.856;2022-10-16T14:06:59;18.20;99.90
5556;DHT22;2801;50.972;7.856;2022-10-16T14:09:28;18.20;99.90
5556;DHT22;2801;50.972;7.856;2022-10-16T14:12:02;18.10;99.90
5556;DHT22;2801;50.972;7.856;2022-10-16T14:14:42;18.20;99.90
5556;DHT22;2801;50.972;7.856;2022-10-16T14:17:28;18.00;99.90
5556;DHT22;2801;50.972;7.856;2022-10-16T14:19:59;17.90;99.90
5556;DHT22;2801;50.972;7.856;2022-10-16T14:22:37;17.90;99.90
5556;DHT22;2801;50.972;7.856;2022-10-16T14:28:14;17.80;99.90
5556;DHT22;2801;50.972;7.856;2022-10-16T14:30:53;17.80;99.90
5556;DHT22;2801;50.972;7.856;2022-10-16T14:33:25;17.90;99.90
5556;DHT22;2801;50.972;7.856;2022-10-16T14:36:12;17.80;99.90
5556;DHT22;2801;50.972;7.856;2022-10-16T14:38:59;17.80;99.90
5556;DHT22;2801;50.972;7.856;2022-10-16T14:41:31;17.80;99.90
5556;DHT22;2801;50.972;7.856;2022-10-16T14:44:03;17.80;99.90
5556;DHT22;2801;50.972;7.856;2022-10-16T14:46:34;17.80;99.90
5556;DHT22;2801;50.972;7.856;2022-10-16T14:51:40;17.60;99.90
5556;DHT22;2801;50.972;7.856;2022-10-16T14:54:09;17.60;99.90
5556;DHT22;2801;50.972;7.856;2022-10-16T14:56:45;17.50;99.90
5556;DHT22;2801;50.972;7.856;2022-10-16T14:59:30;17.50;99.90
5556;DHT22;2801;50.972;7.856;2022-10-16T15:02:28;17.30;99.90
5556;DHT22;2801;50.972;7.856;2022-10-16T15:04:57;17.20;99.90
5556;DHT22;2801;50.972;7.856;2022-10-16T15:07:28;17.20;99.90
5556;DHT22;2801;50.972;7.856;2022-10-16T15:09:55;17.20;99.90
5556;DHT22;2801;50.972;7.856;2022-10-16T15:12:23;17.20;99.90
5556;DHT22;2801;50.972;7.856;2022-10-16T15:14:50;17.20;99.90
5556;DHT22;2801;50.972;7.856;2022-10-16T15:17:16;17.20;99.90
5556;DHT22;2801;50.972;7.856;2022-10-16T15:19:47;17.10;99.90
5556;DHT22;2801;50.972;7.856;2022-10-16T15:22:14;17.20;99.90
5556;DHT22;2801;50.972;7.856;2022-10-16T15:24:41;17.30;99.90
5556;DHT22;2801;50.972;7.856;2022-10-16T15:27:08;17.20;99.90
5556;DHT22;2801;50.972;7.856;2022-10-16T15:29:35;17.20;99.90
5556;DHT22;2801;50.972;7.856;2022-10-16T15:32:02;17.20;99.90
5556;DHT22;2801;50.972;7.856;2022-10-16T15:34:29;17.20;99.90
5556;DHT22;2801;50.972;7.856;2022-10-16T15:36:55;17.10;99.90
5556;DHT22;2801;50.972;7.856;2022-10-16T15:39:24;17.10;99.90
5556;DHT22;2801;50.972;7.856;2022-10-16T15:41:50;17.00;99.90
5556;DHT22;2801;50.972;7.856;2022-10-16T15:44:20;16.90;99.90
5556;DHT22;2801;50.972;7.856;2022-10-16T15:46:49;16.80;99.90
5556;DHT22;2801;50.972;7.856;2022-10-16T15:49:16;16.70;99.90
5556;DHT22;2801;50.972;7.856;2022-10-16T15:51:43;16.60;99.90
5556;DHT22;2801;50.972;7.856;2022-10-16T15:54:09;16.60;99.90
5556;DHT22;2801;50.972;7.856;2022-10-16T15:56:36;16.50;99.90
5556;DHT22;2801;50.972;7.856;2022-10-16T15:59:04;16.50;99.90
5556;DHT22;2801;50.972;7.856;2022-10-16T16:01:34;16.40;99.90
5556;DHT22;2801;50.972;7.856;2022-10-16T16:04:02;16.40;99.90
5556;DHT22;2801;50.972;7.856;2022-10-16T16:06:41;16.30;99.90
5556;DHT22;2801;50.972;7.856;2022-10-16T16:09:12;16.30;99.90
5556;DHT22;2801;50.972;7.856;2022-10-16T16:11:40;16.20;99.90
5556;DHT22;2801;50.972;7.856;2022-10-16T16:14:07;16.20;99.90
5556;DHT22;2801;50.972;7.856;2022-10-16T16:16:38;16.00;99.90
5556;DHT22;2801;50.972;7.856;2022-10-16T16:19:05;16.00;99.90
5556;DHT22;2801;50.972;7.856;2022-10-16T16:21:37;15.90;99.90
5556;DHT22;2801;50.972;7.856;2022-10-16T16:24:04;15.80;99.90
5556;DHT22;2801;50.972;7.856;2022-10-16T16:26:34;15.80;99.90
5556;DHT22;2801;50.972;7.856;2022-10-16T16:29:04;15.80;99.90
5556;DHT22;2801;50.972;7.856;2022-10-16T16:31:32;15.80;99.90
5556;DHT22;2801;50.972;7.856;2022-10-16T16:34:00;15.80;99.90
5556;DHT22;2801;50.972;7.856;2022-10-16T16:36:26;15.70;99.90
5556;DHT22;2801;50.972;7.856;2022-10-16T16:38:53;15.60;99.90
5556;DHT22;2801;50.972;7.856;2022-10-16T16:41:22;15.60;99.90
5556;DHT22;2801;50.972;7.856;2022-10-16T16:43:52;15.60;99.90
5556;DHT22;2801;50.972;7.856;2022-10-16T16:46:21;15.60;99.90
5556;DHT22;2801;50.972;7.856;2022-10-16T16:48:48;15.50;99.90
5556;DHT22;2801;50.972;7.856;2022-10-16T16:51:17;15.50;99.90
5556;DHT22;2801;50.972;7.856;2022-10-16T16:53:47;15.50;99.90
5556;DHT22;2801;50.972;7.856;2022-10-16T16:56:17;15.50;99.90
5556;DHT22;2801;50.972;7.856;2022-10-16T16:58:46;15.50;99.90
5556;DHT22;2801;50.972;7.856;2022-10-16T17:01:16;15.50;99.90
5556;DHT22;2801;50.972;7.856;2022-10-16T17:03:48;15.50;99.90
5556;DHT22;2801;50.972;7.856;2022-10-16T17:06:18;15.40;99.90
5556;DHT22;2801;50.972;7.856;2022-10-16T17:08:47;15.50;99.90
5556;DHT22;2801;50.972;7.856;2022-10-16T17:11:26;15.40;99.90
5556;DHT22;2801;50.972;7.856;2022-10-16T17:13:55;15.40;99.90
5556;DHT22;2801;50.972;7.856;2022-10-16T17:16:34;15.40;99.90
5556;DHT22;2801;50.972;7.856;2022-10-16T17:19:04;15.40;99.90
5556;DHT22;2801;50.972;7.856;2022-10-16T17:21:36;15.30;99.90
5556;DHT22;2801;50.972;7.856;2022-10-16T17:24:04;15.30;99.90
5556;DHT22;2801;50.972;7.856;2022-10-16T17:26:31;15.20;99.90
5556;DHT22;2801;50.972;7.856;2022-10-16T17:29:00;15.20;99.90
5556;DHT22;2801;50.972;7.856;2022-10-16T17:31:35;15.20;99.90
5556;DHT22;2801;50.972;7.856;2022-10-16T17:34:05;15.20;99.90
5556;DHT22;2801;50.972;7.856;2022-10-16T17:36:36;15.10;99.90
5556;DHT22;2801;50.972;7.856;2022-10-16T17:39:06;15.10;99.90
5556;DHT22;2801;50.972;7.856;2022-10-16T17:41:34;15.10;99.90
5556;DHT22;2801;50.972;7.856;2022-10-16T17:44:03;15.10;99.90
5556;DHT22;2801;50.972;7.856;2022-10-16T17:46:31;15.10;99.90
5556;DHT22;2801;50.972;7.856;2022-10-16T17:49:05;15.10;99.90
5556;DHT22;2801;50.972;7.856;2022-10-16T17:51:32;15.10;99.90
5556;DHT22;2801;50.972;7.856;2022-10-16T17:54:00;15.10;99.90
5556;DHT22;2801;50.972;7.856;2022-10-16T17:56:29;15.10;99.90
5556;DHT22;2801;50.972;7.856;2022-10-16T17:58:58;15.10;99.90
5556;DHT22;2801;50.972;7.856;2022-10-16T18:01:29;15.10;99.90
5556;DHT22;2801;50.972;7.856;2022-10-16T18:04:08;15.10;99.90
5556;DHT22;2801;50.972;7.856;2022-10-16T18:06:40;15.00;99.90
5556;DHT22;2801;50.972;7.856;2022-10-16T18:09:11;15.00;99.90
5556;DHT22;2801;50.972;7.856;2022-10-16T18:11:39;15.00;99.90
5556;DHT22;2801;50.972;7.856;2022-10-16T18:14:06;15.00;99.90
5556;DHT22;2801;50.972;7.856;2022-10-16T18:16:33;15.00;99.90
5556;DHT22;2801;50.972;7.856;2022-10-16T18:19:02;15.00;99.90
5556;DHT22;2801;50.972;7.856;2022-10-16T18:21:30;15.00;99.90